Time;durP1;ratioP1;P1;durP2;ratioP2;P2;SDS_P1;SDS_P2;PMS_P1;PMS_P2;Temp;Humidity;BMP_temperature;BMP_pressure;BME280_temperature;BME280_humidity;BME280_pressure;Samples;Min_cycle;Max_cycle;Signal;HPM_P1;HPM_P2
2023/05/16 00:02:07;;;;;;;5.80;5.30;;;7.90;99.90;;;;;;5053844;28;20498;-59
2023/05/16 00:04:35;;;;;;;7.75;5.45;;;7.90;99.90;;;;;;5052130;28;20452;-58
2023/05/16 00:07:01;;;;;;;8.57;6.05;;;8.00;99.90;;;;;;5053472;28;20535;-59
2023/05/16 00:09:26;;;;;;;12.45;5.15;;;8.00;99.90;;;;;;5053386;28;20033;-59
2023/05/16 00:11:52;;;;;;;8.50;5.38;;;7.90;99.90;;;;;;5053372;28;20112;-59
2023/05/16 00:14:18;;;;;;;7.13;6.20;;;7.90;99.90;;;;;;5053335;28;20064;-59
2023/05/16 00:16:44;;;;;;;6.05;5.45;;;7.90;99.90;;;;;;5053082;28;20033;-59
2023/05/16 00:19:10;;;;;;;6.72;5.97;;;7.90;99.90;;;;;;5053221;28;20028;-59
2023/05/16 00:21:36;;;;;;;7.40;5.88;;;7.90;99.90;;;;;;5052999;28;20031;-59
2023/05/16 00:24:02;;;;;;;5.30;4.80;;;7.80;99.90;;;;;;5060249;28;20119;-59
2023/05/16 00:26:28;;;;;;;6.38;4.90;;;7.80;99.90;;;;;;5073269;28;20027;-59
2023/05/16 00:28:54;;;;;;;5.57;4.85;;;7.70;99.90;;;;;;5072946;28;20475;-59
2023/05/16 00:31:20;;;;;;;4.45;4.13;;;7.70;99.90;;;;;;5073008;28;20031;-59
2023/05/16 00:33:45;;;;;;;6.65;5.18;;;7.70;99.90;;;;;;5072912;28;20036;-59
2023/05/16 00:36:11;;;;;;;9.98;4.53;;;7.70;99.90;;;;;;5072848;28;20070;-59
2023/05/16 00:38:37;;;;;;;6.13;5.53;;;7.60;99.90;;;;;;5072719;28;20029;-59
2023/05/16 00:41:03;;;;;;;8.70;5.38;;;7.60;99.90;;;;;;5072857;28;20016;-59
2023/05/16 00:43:29;;;;;;;10.02;5.43;;;7.60;99.90;;;;;;5072767;28;20487;-59
2023/05/16 00:45:56;;;;;;;6.38;5.30;;;7.50;99.90;;;;;;5072644;28;20055;-59
2023/05/16 00:48:22;;;;;;;6.78;5.30;;;7.40;99.90;;;;;;5072558;28;20228;-59
2023/05/16 00:50:48;;;;;;;7.43;4.82;;;7.40;99.90;;;;;;5072651;28;21044;-59
2023/05/16 00:53:14;;;;;;;5.53;5.03;;;7.50;99.90;;;;;;5071306;28;20021;-59
2023/05/16 00:55:40;;;;;;;6.95;5.20;;;7.40;99.90;;;;;;5072521;28;20029;-59
2023/05/16 00:58:06;;;;;;;8.13;5.18;;;7.40;99.90;;;;;;5070936;28;20087;-58
2023/05/16 01:00:31;;;;;;;5.47;4.95;;;7.40;99.90;;;;;;5072426;28;20420;-58
2023/05/16 01:02:57;;;;;;;7.82;5.32;;;7.30;99.90;;;;;;5070871;28;20039;-58
2023/05/16 01:05:23;;;;;;;8.23;5.65;;;7.40;99.90;;;;;;5071929;28;20028;-58
2023/05/16 01:07:48;;;;;;;7.00;5.82;;;7.40;99.90;;;;;;5072192;28;20031;-59
2023/05/16 01:10:14;;;;;;;6.43;5.72;;;7.50;99.90;;;;;;5072405;28;20372;-59
2023/05/16 01:12:49;;;;;;;12.10;5.85;;;7.50;99.90;;;;;;5071948;28;20107;-59
2023/05/16 01:15:24;;;;;;;11.98;6.47;;;7.50;99.90;;;;;;5072151;28;20020;-59
2023/05/16 01:17:50;;;;;;;9.15;6.45;;;7.40;99.90;;;;;;5071944;28;20066;-59
2023/05/16 01:20:37;;;;;;;11.50;6.40;;;7.40;99.90;;;;;;5072255;28;20028;-59
2023/05/16 01:23:27;;;;;;;7.13;6.28;;;7.40;99.90;;;;;;5072049;28;20044;-59
2023/05/16 01:26:16;;;;;;;10.63;6.15;;;7.40;99.90;;;;;;5072002;28;20119;-59
2023/05/16 01:28:44;;;;;;;6.47;5.88;;;7.40;99.90;;;;;;5071908;28;20037;-59
2023/05/16 01:31:10;;;;;;;6.65;5.15;;;7.30;99.90;;;;;;5071902;28;20036;-59
2023/05/16 01:33:36;;;;;;;6.07;5.22;;;7.30;99.90;;;;;;5071828;28;20025;-58
2023/05/16 01:36:19;;;;;;;11.15;5.90;;;7.30;99.90;;;;;;5071978;28;20103;-59
2023/05/16 01:39:00;;;;;;;8.27;6.35;;;7.30;99.90;;;;;;5071588;28;20028;-59
2023/05/16 01:41:47;;;;;;;5.82;5.22;;;7.40;99.90;;;;;;5071752;28;20055;-59
2023/05/16 01:44:36;;;;;;;5.88;5.30;;;7.40;99.90;;;;;;5071825;28;20441;-59
2023/05/16 01:47:08;;;;;;;5.75;5.15;;;7.50;99.90;;;;;;5071807;28;20048;-59
2023/05/16 01:49:39;;;;;;;14.80;5.95;;;7.50;99.90;;;;;;5071590;28;20029;-58
2023/05/16 01:52:13;;;;;;;5.75;4.97;;;7.40;99.90;;;;;;5071861;28;20023;-58
2023/05/16 01:54:42;;;;;;;6.65;6.03;;;7.40;99.90;;;;;;5070318;28;20025;-58
2023/05/16 01:57:09;;;;;;;6.78;5.05;;;7.40;99.90;;;;;;5071938;28;20029;-59
2023/05/16 01:59:36;;;;;;;9.18;5.15;;;7.50;99.90;;;;;;5072050;28;20052;-59
2023/05/16 02:02:02;;;;;;;6.13;5.43;;;7.50;99.90;;;;;;5071714;28;20429;-58
2023/05/16 02:04:28;;;;;;;9.50;6.35;;;7.50;99.90;;;;;;5071587;28;20059;-58
2023/05/16 02:06:53;;;;;;;6.97;5.40;;;7.60;99.90;;;;;;5070163;28;20051;-58
2023/05/16 02:09:19;;;;;;;7.90;5.82;;;7.60;99.90;;;;;;5071631;28;20032;-58
2023/05/16 02:11:45;;;;;;;9.02;7.13;;;7.70;99.90;;;;;;5071407;28;20035;-58
2023/05/16 02:14:11;;;;;;;8.18;6.20;;;7.70;99.90;;;;;;5071458;28;20387;-58
2023/05/16 02:16:37;;;;;;;9.27;5.75;;;7.80;99.90;;;;;;5075382;28;20108;-58
2023/05/16 02:19:02;;;;;;;6.53;5.55;;;7.80;99.90;;;;;;5075489;28;20029;-59
2023/05/16 02:21:28;;;;;;;6.82;5.40;;;7.90;99.90;;;;;;5075730;28;20398;-58
2023/05/16 02:23:54;;;;;;;6.20;5.60;;;7.90;99.90;;;;;;5075203;28;20052;-59
2023/05/16 02:26:20;;;;;;;6.13;5.22;;;8.00;99.90;;;;;;5075602;28;20502;-59
2023/05/16 02:28:48;;;;;;;7.45;6.30;;;8.00;99.90;;;;;;5075056;28;20069;-58
2023/05/16 02:31:31;;;;;;;10.25;6.03;;;8.00;99.90;;;;;;5075415;28;20025;-58
2023/05/16 02:33:57;;;;;;;7.20;6.50;;;8.00;99.90;;;;;;5075290;28;20475;-59
2023/05/16 02:36:23;;;;;;;6.65;5.85;;;8.10;99.90;;;;;;5075351;28;20603;-58
2023/05/16 02:38:49;;;;;;;7.90;6.65;;;8.10;99.90;;;;;;5074947;28;20376;-58
2023/05/16 02:41:15;;;;;;;9.93;6.45;;;8.10;99.90;;;;;;5075309;28;20024;-58
2023/05/16 02:43:41;;;;;;;8.45;5.97;;;8.20;99.90;;;;;;5073523;28;20063;-59
2023/05/16 02:46:20;;;;;;;7.35;6.65;;;8.20;99.90;;;;;;5075199;28;20074;-59
2023/05/16 02:48:46;;;;;;;8.73;6.25;;;8.20;99.90;;;;;;5075093;28;20395;-59
2023/05/16 02:51:12;;;;;;;9.32;5.63;;;8.20;99.90;;;;;;5073622;28;20036;-59
2023/05/16 02:53:37;;;;;;;6.20;5.40;;;8.20;99.90;;;;;;5074689;28;20033;-59
2023/05/16 02:56:05;;;;;;;10.85;6.38;;;8.20;99.90;;;;;;5074849;28;20070;-59
2023/05/16 02:58:31;;;;;;;7.22;6.07;;;8.20;99.90;;;;;;5074381;28;20144;-59
2023/05/16 03:00:57;;;;;;;10.18;6.22;;;8.20;99.90;;;;;;5074845;28;20025;-59
2023/05/16 03:03:23;;;;;;;7.03;6.13;;;8.20;99.90;;;;;;5075020;28;20035;-59
2023/05/16 03:05:49;;;;;;;6.53;5.82;;;8.20;99.90;;;;;;5073236;28;20035;-59
2023/05/16 03:08:14;;;;;;;6.43;5.82;;;8.20;99.90;;;;;;5074656;28;20013;-59
2023/05/16 03:10:40;;;;;;;10.32;6.28;;;8.20;99.90;;;;;;5074548;28;20028;-58
2023/05/16 03:13:06;;;;;;;15.90;7.75;;;8.10;99.90;;;;;;5074406;28;20024;-59
2023/05/16 03:15:31;;;;;;;8.30;7.43;;;8.10;99.90;;;;;;5074506;28;20055;-58
2023/05/16 03:17:57;;;;;;;8.63;7.28;;;8.20;99.90;;;;;;5074494;28;20406;-59
2023/05/16 03:20:23;;;;;;;6.15;5.63;;;8.20;99.90;;;;;;5074368;28;20025;-58
2023/05/16 03:22:48;;;;;;;7.22;6.47;;;8.20;99.90;;;;;;5072900;28;20028;-58
2023/05/16 03:25:14;;;;;;;12.25;6.82;;;8.20;99.90;;;;;;5072994;28;20040;-59
2023/05/16 03:27:39;;;;;;;8.65;7.30;;;8.20;99.90;;;;;;5073482;28;20021;-59
2023/05/16 03:30:06;;;;;;;9.55;6.38;;;8.20;99.90;;;;;;5072980;28;20020;-59
2023/05/16 03:32:32;;;;;;;8.82;6.55;;;8.20;99.90;;;;;;5074222;28;20032;-58
2023/05/16 03:34:58;;;;;;;8.50;7.25;;;8.20;99.90;;;;;;5074239;28;20071;-59
2023/05/16 03:37:23;;;;;;;10.50;6.55;;;8.20;99.90;;;;;;5074088;28;20050;-59
2023/05/16 03:39:49;;;;;;;7.82;7.03;;;8.20;99.90;;;;;;5073864;28;20031;-59
2023/05/16 03:42:17;;;;;;;8.15;6.60;;;8.10;99.90;;;;;;5074202;28;20052;-56
2023/05/16 03:44:43;;;;;;;10.38;7.70;;;8.10;99.90;;;;;;5074053;28;20360;-59
2023/05/16 03:47:08;;;;;;;7.30;6.57;;;8.10;99.90;;;;;;5073986;28;20040;-59
2023/05/16 03:49:35;;;;;;;10.82;7.40;;;8.10;99.90;;;;;;5073861;28;20038;-59
2023/05/16 03:52:02;;;;;;;8.80;7.32;;;8.20;99.90;;;;;;5073863;28;20036;-59
2023/05/16 03:54:28;;;;;;;8.80;7.05;;;8.20;99.90;;;;;;5073846;28;20016;-59
2023/05/16 03:56:53;;;;;;;17.88;8.80;;;8.20;99.90;;;;;;5073662;28;20029;-59
2023/05/16 03:59:19;;;;;;;11.23;7.47;;;8.30;99.90;;;;;;5073476;28;20048;-58
2023/05/16 04:01:45;;;;;;;8.98;7.53;;;8.30;99.90;;;;;;5073403;28;20028;-58
2023/05/16 04:04:10;;;;;;;12.18;6.50;;;8.30;99.90;;;;;;5073725;28;20029;-58
2023/05/16 04:06:36;;;;;;;8.27;6.22;;;8.40;99.90;;;;;;5073356;28;20107;-58
2023/05/16 04:09:01;;;;;;;12.52;6.78;;;8.30;99.90;;;;;;5073557;28;20109;-58
2023/05/16 04:11:27;;;;;;;6.53;5.80;;;8.40;99.90;;;;;;5073441;28;20078;-58
2023/05/16 04:13:53;;;;;;;9.68;6.13;;;8.40;99.90;;;;;;5071781;28;20032;-58
2023/05/16 04:16:19;;;;;;;7.68;5.72;;;8.40;99.90;;;;;;5073449;28;20020;-56
2023/05/16 04:18:45;;;;;;;7.03;6.00;;;8.40;99.90;;;;;;5073102;28;20207;-58
2023/05/16 04:21:14;;;;;;;7.38;5.78;;;8.40;99.90;;;;;;5073386;28;20028;-58
2023/05/16 04:23:40;;;;;;;9.55;7.38;;;8.40;99.90;;;;;;5072888;28;20078;-59
2023/05/16 04:26:05;;;;;;;8.93;6.72;;;8.40;99.90;;;;;;5072292;28;20103;-59
2023/05/16 04:28:31;;;;;;;15.45;6.32;;;8.40;99.90;;;;;;5071890;28;20108;-59
2023/05/16 04:30:57;;;;;;;7.68;6.10;;;8.50;99.90;;;;;;5072014;28;20119;-58
2023/05/16 04:33:23;;;;;;;7.82;6.10;;;8.60;99.90;;;;;;5072964;28;20020;-59
2023/05/16 04:35:48;;;;;;;15.73;6.13;;;8.60;99.90;;;;;;5072275;28;20434;-58
2023/05/16 04:38:15;;;;;;;8.13;5.35;;;8.70;99.90;;;;;;5071412;28;20549;-59
2023/05/16 04:40:40;;;;;;;20.10;6.95;;;8.80;99.90;;;;;;5072855;28;20556;-57
2023/05/16 04:43:07;;;;;;;11.55;6.10;;;8.90;99.90;;;;;;5072807;28;20035;-58
2023/05/16 04:45:32;;;;;;;7.30;6.15;;;8.90;99.90;;;;;;5072693;28;20418;-58
2023/05/16 04:47:58;;;;;;;8.57;6.10;;;8.90;99.90;;;;;;5071415;28;20058;-58
2023/05/16 04:50:24;;;;;;;9.73;6.38;;;9.00;99.90;;;;;;5072743;28;20020;-59
2023/05/16 04:52:49;;;;;;;10.02;5.50;;;9.00;99.90;;;;;;5072453;28;20554;-59
2023/05/16 04:55:15;;;;;;;10.82;6.07;;;9.00;99.90;;;;;;5072626;28;20032;-58
2023/05/16 04:57:41;;;;;;;6.55;5.68;;;9.00;99.90;;;;;;5072294;28;20490;-58
2023/05/16 05:00:10;;;;;;;7.00;6.30;;;9.10;99.90;;;;;;5071034;28;20029;-59
2023/05/16 05:02:43;;;;;;;14.65;6.10;;;9.10;99.90;;;;;;5072333;28;20074;-58
2023/05/16 05:05:09;;;;;;;6.68;6.05;;;9.10;99.90;;;;;;5070114;28;20451;-58
2023/05/16 05:07:34;;;;;;;7.35;5.68;;;9.10;99.90;;;;;;5070357;28;20059;-58
2023/05/16 05:10:00;;;;;;;8.10;6.15;;;9.20;99.90;;;;;;5071778;28;20032;-58
2023/05/16 05:12:26;;;;;;;7.28;6.15;;;9.30;99.90;;;;;;5071620;28;20071;-58
2023/05/16 05:14:52;;;;;;;8.88;5.72;;;9.40;99.90;;;;;;5071583;28;20120;-58
2023/05/16 05:17:20;;;;;;;6.45;5.32;;;9.60;99.90;;;;;;5071924;28;20068;-58
2023/05/16 05:19:47;;;;;;;12.27;5.75;;;9.80;99.70;;;;;;5071806;28;20074;-58
2023/05/16 05:22:13;;;;;;;9.02;6.07;;;9.90;98.40;;;;;;5072059;28;20070;-59
2023/05/16 05:24:38;;;;;;;7.65;6.70;;;10.20;97.50;;;;;;5071217;28;20394;-58
2023/05/16 05:27:04;;;;;;;10.70;6.45;;;10.30;94.90;;;;;;5071982;28;20155;-59
2023/05/16 05:29:30;;;;;;;6.80;6.10;;;10.40;92.70;;;;;;5071900;28;20029;-59
2023/05/16 05:31:55;;;;;;;9.23;5.97;;;10.50;92.30;;;;;;5071732;28;20056;-54
2023/05/16 05:34:21;;;;;;;6.60;5.93;;;10.60;90.70;;;;;;5071798;28;20029;-59
2023/05/16 05:36:47;;;;;;;8.90;6.47;;;10.80;87.20;;;;;;5071638;28;20024;-59
2023/05/16 05:39:12;;;;;;;9.63;5.97;;;10.90;81.90;;;;;;5071522;28;20105;-59
2023/05/16 05:41:38;;;;;;;6.28;5.13;;;10.90;78.90;;;;;;5071206;28;20032;-59
2023/05/16 05:44:05;;;;;;;5.57;4.85;;;11.00;77.40;;;;;;5071856;28;20029;-59
2023/05/16 05:46:32;;;;;;;6.18;5.22;;;11.00;76.50;;;;;;5071652;28;20051;-59
2023/05/16 05:48:58;;;;;;;6.43;5.03;;;10.80;73.80;;;;;;5071618;28;20032;-59
2023/05/16 05:51:24;;;;;;;8.23;5.50;;;10.80;77.10;;;;;;5071417;28;20033;-59
2023/05/16 05:53:51;;;;;;;6.75;5.47;;;10.80;74.60;;;;;;5071413;28;20021;-59
2023/05/16 05:56:16;;;;;;;7.88;6.28;;;10.80;77.60;;;;;;5070409;28;20028;-58
2023/05/16 05:58:42;;;;;;;7.47;5.90;;;10.80;82.30;;;;;;5069374;28;20054;-58
2023/05/16 06:01:12;;;;;;;7.20;5.78;;;10.70;89.40;;;;;;5070277;28;20060;-58
2023/05/16 06:03:38;;;;;;;7.70;6.05;;;10.90;83.00;;;;;;5071397;28;20113;-59
2023/05/16 06:06:04;;;;;;;10.60;6.00;;;11.00;75.80;;;;;;5071700;28;20104;-58
2023/05/16 06:08:29;;;;;;;14.00;6.60;;;11.00;79.20;;;;;;5071600;28;20476;-59
2023/05/16 06:10:55;;;;;;;8.02;6.13;;;11.10;82.10;;;;;;5071400;28;20016;-58
2023/05/16 06:13:21;;;;;;;6.85;6.00;;;11.30;79.30;;;;;;5071618;28;20028;-59
2023/05/16 06:15:53;;;;;;;5.55;4.78;;;11.50;71.80;;;;;;5070689;28;20376;-59
2023/05/16 06:18:19;;;;;;;7.13;5.70;;;11.60;66.50;;;;;;5071367;28;20025;-58
2023/05/16 06:20:45;;;;;;;11.07;6.00;;;11.60;61.80;;;;;;5071289;28;20027;-58
2023/05/16 06:23:11;;;;;;;5.93;5.25;;;11.60;69.90;;;;;;5071428;28;20021;-59
2023/05/16 06:25:37;;;;;;;5.95;5.43;;;11.80;63.90;;;;;;5071477;28;20035;-58
2023/05/16 06:28:03;;;;;;;6.90;6.20;;;11.90;60.70;;;;;;5071361;28;20021;-59
2023/05/16 06:30:29;;;;;;;6.28;5.47;;;11.90;57.70;;;;;;5071313;28;20076;-59
2023/05/16 06:32:54;;;;;;;10.85;5.93;;;12.10;52.80;;;;;;5069342;28;20083;-59
2023/05/16 06:35:20;;;;;;;9.20;5.53;;;12.30;52.40;;;;;;5071232;28;20031;-59
2023/05/16 06:37:46;;;;;;;5.43;4.93;;;12.40;47.80;;;;;;5070337;28;20491;-59
2023/05/16 06:40:13;;;;;;;10.15;5.32;;;12.60;55.70;;;;;;5071212;28;20425;-58
2023/05/16 06:42:38;;;;;;;8.98;5.97;;;12.60;36.60;;;;;;5071160;28;20468;-59
2023/05/16 06:45:05;;;;;;;8.07;4.75;;;12.60;30.00;;;;;;5070901;28;20052;-59
2023/05/16 06:47:31;;;;;;;7.53;5.57;;;12.70;37.40;;;;;;5071144;28;20111;-59
2023/05/16 06:49:56;;;;;;;9.77;5.93;;;12.90;25.80;;;;;;5068898;28;20578;-59
2023/05/16 06:52:22;;;;;;;7.07;5.03;;;12.90;17.60;;;;;;5071026;28;20115;-59
2023/05/16 06:54:47;;;;;;;15.82;5.35;;;13.00;20.10;;;;;;5069594;28;20069;-59
2023/05/16 06:57:13;;;;;;;8.32;5.00;;;13.00;19.60;;;;;;5069717;28;20112;-59
2023/05/16 06:59:39;;;;;;;11.68;4.45;;;13.30;7.80;;;;;;5070530;28;20443;-58
2023/05/16 07:02:05;;;;;;;5.93;5.28;;;13.50;1.30;;;;;;5072340;28;20025;-59
2023/05/16 07:04:31;;;;;;;5.55;5.03;;;13.40;3.90;;;;;;5074813;28;20044;-59
2023/05/16 07:06:57;;;;;;;6.20;5.60;;;13.20;8.70;;;;;;5074166;28;20078;-58
2023/05/16 07:09:23;;;;;;;5.80;5.20;;;13.30;1.00;;;;;;5074513;28;20651;-58
2023/05/16 07:11:48;;;;;;;7.38;5.53;;;13.50;1.00;;;;;;5074413;28;20035;-58
2023/05/16 07:14:14;;;;;;;6.20;5.57;;;13.50;1.00;;;;;;5074345;28;20036;-58
2023/05/16 07:16:40;;;;;;;6.13;5.53;;;13.50;1.00;;;;;;5074436;28;20028;-58
2023/05/16 07:19:05;;;;;;;10.05;5.53;;;13.70;1.00;;;;;;5074043;28;20433;-58
2023/05/16 07:21:31;;;;;;;7.95;6.55;;;13.70;1.00;;;;;;5074106;28;20028;-58
2023/05/16 07:23:57;;;;;;;9.85;6.32;;;13.70;1.00;;;;;;5073945;28;20078;-58
2023/05/16 07:26:22;;;;;;;10.27;7.00;;;13.80;1.00;;;;;;5073824;28;20040;-58
2023/05/16 07:28:51;;;;;;;9.82;5.53;;;13.80;1.00;;;;;;5073829;28;20020;-58
2023/05/16 07:31:17;;;;;;;9.25;6.30;;;13.70;1.00;;;;;;5073818;28;20430;-58
2023/05/16 07:33:45;;;;;;;7.28;6.18;;;13.60;1.00;;;;;;5073661;28;20321;-58
2023/05/16 07:36:12;;;;;;;6.25;5.40;;;14.00;1.00;;;;;;5072932;28;20025;-58
2023/05/16 07:38:38;;;;;;;7.00;5.07;;;14.20;1.00;;;;;;5072625;28;20042;-58
2023/05/16 07:41:03;;;;;;;10.70;5.78;;;14.30;1.00;;;;;;5071351;28;20029;-58
2023/05/16 07:43:29;;;;;;;11.13;5.38;;;14.10;1.00;;;;;;5074115;28;20039;-58
2023/05/16 07:45:55;;;;;;;6.57;5.50;;;14.10;1.00;;;;;;5073261;28;20033;-58
2023/05/16 07:48:20;;;;;;;6.78;5.25;;;14.10;1.00;;;;;;5072566;28;20048;-58
2023/05/16 07:50:46;;;;;;;5.95;5.35;;;14.60;1.00;;;;;;5072753;28;20020;-58
2023/05/16 07:53:12;;;;;;;7.13;5.05;;;14.60;1.00;;;;;;5071200;28;20086;-58
2023/05/16 07:55:37;;;;;;;8.38;5.38;;;14.50;99.90;;;;;;5073213;28;20028;-58
2023/05/16 07:58:03;;;;;;;12.70;6.18;;;14.80;1.00;;;;;;5072017;28;20372;-58
2023/05/16 08:00:29;;;;;;;7.15;5.55;;;15.30;99.90;;;;;;5070565;28;20543;-59
2023/05/16 08:02:56;;;;;;;7.55;6.80;;;15.10;99.90;;;;;;5072317;28;20380;-59
2023/05/16 08:05:22;;;;;;;7.38;6.30;;;15.00;99.90;;;;;;5072359;28;20024;-59
2023/05/16 08:07:47;;;;;;;6.78;5.47;;;15.20;99.90;;;;;;5072580;28;20020;-59
2023/05/16 08:10:13;;;;;;;9.32;8.48;;;15.40;39.30;;;;;;5070855;28;20431;-59
2023/05/16 08:12:39;;;;;;;7.18;5.85;;;15.10;99.90;;;;;;5072749;28;20086;-59
2023/05/16 08:15:05;;;;;;;7.70;6.05;;;15.10;99.90;;;;;;5073000;28;20032;-59
2023/05/16 08:17:31;;;;;;;11.18;6.35;;;15.30;99.90;;;;;;5072620;28;20031;-58
2023/05/16 08:19:58;;;;;;;7.45;6.43;;;15.30;99.90;;;;;;5071814;28;20021;-59
2023/05/16 08:22:24;;;;;;;13.90;7.38;;;15.10;99.90;;;;;;5073271;28;20017;-59
2023/05/16 08:24:50;;;;;;;7.78;6.35;;;15.30;99.90;;;;;;5072749;28;20023;-58
2023/05/16 08:27:15;;;;;;;7.82;6.32;;;15.20;99.90;;;;;;5073081;28;20349;-59
2023/05/16 08:29:41;;;;;;;6.82;6.13;;;15.20;99.90;;;;;;5072896;28;20032;-58
2023/05/16 08:32:09;;;;;;;8.02;6.57;;;15.20;99.90;;;;;;5072467;28;20380;-59
2023/05/16 08:34:35;;;;;;;21.58;9.05;;;15.00;99.90;;;;;;5072083;28;20434;-58
2023/05/16 08:37:01;;;;;;;10.95;8.40;;;15.10;99.90;;;;;;5073378;28;20099;-58
2023/05/16 08:39:29;;;;;;;9.40;6.65;;;15.20;99.90;;;;;;5073234;28;20055;-59
2023/05/16 08:41:55;;;;;;;7.28;6.55;;;15.20;99.90;;;;;;5072613;28;20108;-58
2023/05/16 08:44:21;;;;;;;7.22;6.00;;;15.20;99.90;;;;;;5072655;28;20108;-59
2023/05/16 08:46:51;;;;;;;9.60;6.95;;;15.30;1.00;;;;;;5072541;28;20109;-59
2023/05/16 08:49:17;;;;;;;12.10;6.75;;;15.40;99.90;;;;;;5072699;28;20020;-59
2023/05/16 08:51:49;;;;;;;11.40;7.38;;;15.50;1.00;;;;;;5070705;28;20137;-59
2023/05/16 08:54:15;;;;;;;11.10;7.18;;;15.60;1.00;;;;;;5072527;28;20021;-59
2023/05/16 08:56:42;;;;;;;10.52;7.05;;;15.60;1.00;;;;;;5072164;28;20100;-59
2023/05/16 08:59:08;;;;;;;6.90;6.20;;;15.50;1.00;;;;;;5072126;28;20044;-59
2023/05/16 09:01:35;;;;;;;7.95;5.60;;;15.70;1.00;;;;;;5072079;28;20025;-59
2023/05/16 09:04:03;;;;;;;15.73;7.50;;;15.70;99.90;;;;;;5072279;28;20127;-58
2023/05/16 09:06:28;;;;;;;10.55;9.55;;;15.80;1.00;;;;;;5072150;28;20118;-58
2023/05/16 09:08:55;;;;;;;7.57;6.70;;;15.80;1.00;;;;;;5071591;28;20162;-58
2023/05/16 09:11:21;;;;;;;8.90;7.25;;;16.10;1.00;;;;;;5072173;28;20110;-58
2023/05/16 09:13:48;;;;;;;8.90;6.10;;;16.30;1.00;;;;;;5071918;28;20063;-58
2023/05/16 09:16:18;;;;;;;11.40;6.70;;;16.50;99.90;;;;;;5071653;28;20422;-58
2023/05/16 09:18:51;;;;;;;7.10;6.40;;;16.60;99.90;;;;;;5071517;28;20021;-58
2023/05/16 09:21:18;;;;;;;7.20;6.45;;;16.70;99.90;;;;;;5071268;28;20353;-58
2023/05/16 09:23:43;;;;;;;16.38;6.78;;;16.60;99.90;;;;;;5071455;28;20044;-59
2023/05/16 09:26:09;;;;;;;7.05;6.32;;;16.80;99.90;;;;;;5071006;28;20033;-59
2023/05/16 09:28:38;;;;;;;13.73;7.15;;;16.80;99.90;;;;;;5071310;28;20054;-58
2023/05/16 09:31:35;;;;;;;8.45;6.47;;;17.00;20.30;;;;;;5070826;28;20049;-59
2023/05/16 09:34:01;;;;;;;7.00;6.30;;;17.10;1.00;;;;;;5069454;28;20490;-59
2023/05/16 09:36:27;;;;;;;10.13;5.55;;;17.30;1.00;;;;;;5071319;28;20036;-59
2023/05/16 09:38:53;;;;;;;9.63;7.55;;;17.40;1.00;;;;;;5071228;28;20033;-59
2023/05/16 09:41:20;;;;;;;10.02;7.80;;;17.70;1.00;;;;;;5069573;28;20051;-58
2023/05/16 09:43:46;;;;;;;8.13;6.05;;;17.20;99.90;;;;;;5070898;28;20410;-59
2023/05/16 09:46:15;;;;;;;7.95;7.05;;;17.30;99.90;;;;;;5071526;28;20016;-59
2023/05/16 09:48:47;;;;;;;15.52;7.43;;;17.10;99.90;;;;;;5071174;28;20095;-61
2023/05/16 09:51:13;;;;;;;7.32;6.43;;;17.00;99.90;;;;;;5071883;28;20017;-58
2023/05/16 09:53:40;;;;;;;11.13;7.68;;;17.00;1.00;;;;;;5069480;28;20107;-58
2023/05/16 09:56:14;;;;;;;11.38;7.38;;;16.90;99.90;;;;;;5069905;28;20028;-59
2023/05/16 09:58:42;;;;;;;8.63;6.53;;;16.60;68.60;;;;;;5070775;28;20050;-59
2023/05/16 10:01:09;;;;;;;8.45;7.65;;;16.60;99.90;;;;;;5068569;28;20032;-60
2023/05/16 10:03:40;;;;;;;7.90;7.10;;;16.40;99.90;;;;;;5090634;28;20028;-59
2023/05/16 10:06:06;;;;;;;8.25;7.43;;;16.10;99.90;;;;;;5091489;28;20027;-59
2023/05/16 10:08:35;;;;;;;7.50;6.80;;;16.10;99.90;;;;;;5091246;28;20360;-59
2023/05/16 10:11:05;;;;;;;24.77;8.45;;;16.00;99.90;;;;;;5091486;28;20027;-59
2023/05/16 10:13:35;;;;;;;9.45;7.22;;;15.90;99.90;;;;;;5091391;28;20022;-59
2023/05/16 10:16:07;;;;;;;12.57;7.90;;;15.90;99.90;;;;;;5090727;28;20016;-59
2023/05/16 10:18:34;;;;;;;8.23;7.32;;;15.80;1.00;;;;;;5073075;28;20403;-59
2023/05/16 10:21:05;;;;;;;7.55;6.80;;;15.80;99.90;;;;;;5051932;28;20039;-59
2023/05/16 10:23:33;;;;;;;10.82;6.63;;;15.90;1.00;;;;;;5041500;28;20087;-58
2023/05/16 10:26:02;;;;;;;8.95;6.95;;;15.80;99.90;;;;;;5039491;28;20385;-59
2023/05/16 10:28:28;;;;;;;8.13;7.32;;;15.80;1.00;;;;;;5040871;28;20017;-59
2023/05/16 10:30:55;;;;;;;9.35;7.47;;;16.00;1.00;;;;;;5040814;28;20532;-59
2023/05/16 10:33:21;;;;;;;9.38;7.45;;;16.10;1.00;;;;;;5040722;28;20033;-60
2023/05/16 10:35:47;;;;;;;9.05;7.35;;;16.00;99.90;;;;;;5041822;28;20083;-59
2023/05/16 10:38:16;;;;;;;8.52;7.40;;;16.30;99.90;;;;;;5044543;28;20464;-59
2023/05/16 10:40:42;;;;;;;9.73;8.18;;;16.50;1.00;;;;;;5044284;28;20492;-59
2023/05/16 10:43:08;;;;;;;8.23;7.43;;;16.60;99.90;;;;;;5043635;28;20041;-59
2023/05/16 10:45:38;;;;;;;15.00;7.38;;;16.80;99.90;;;;;;5044668;28;20952;-59
2023/05/16 10:48:05;;;;;;;11.02;7.13;;;16.90;99.90;;;;;;5045800;28;20035;-59
2023/05/16 10:50:32;;;;;;;11.93;8.43;;;17.20;99.90;;;;;;5043905;28;20496;-59
2023/05/16 10:53:20;;;;;;;9.48;7.85;;;17.20;99.90;;;;;;5045133;28;20052;-59
2023/05/16 10:56:00;;;;;;;11.13;7.97;;;17.00;99.90;;;;;;5043593;28;20132;-59
2023/05/16 10:58:33;;;;;;;10.43;8.43;;;16.80;1.00;;;;;;5043405;28;20127;-59
2023/05/16 11:01:18;;;;;;;10.77;8.93;;;16.50;1.00;;;;;;5044168;28;20040;-59
2023/05/16 11:03:55;;;;;;;10.65;9.55;;;16.30;1.00;;;;;;5045012;28;20074;-59
2023/05/16 11:06:22;;;;;;;11.88;9.70;;;16.30;1.00;;;;;;5062886;28;20670;-59
2023/05/16 11:09:09;;;;;;;10.77;8.63;;;16.20;1.00;;;;;;5045943;28;20458;-59
2023/05/16 11:11:47;;;;;;;10.07;9.18;;;16.00;1.00;;;;;;5062666;28;20079;-59
2023/05/16 11:14:24;;;;;;;10.93;8.32;;;16.10;1.00;;;;;;5043761;28;20060;-59
2023/05/16 11:16:52;;;;;;;14.48;8.30;;;16.10;1.00;;;;;;5062258;28;20387;-59
2023/05/16 11:19:31;;;;;;;12.38;9.15;;;16.10;1.00;;;;;;5043185;28;20032;-59
2023/05/16 11:22:17;;;;;;;10.50;9.40;;;16.20;1.00;;;;;;5061104;28;20073;-59
2023/05/16 11:25:00;;;;;;;10.50;9.43;;;16.20;1.00;;;;;;5061060;28;20036;-59
2023/05/16 11:27:27;;;;;;;13.32;10.32;;;15.90;1.00;;;;;;5046334;28;20017;-59
2023/05/16 11:29:57;;;;;;;10.82;9.73;;;15.80;1.00;;;;;;5044080;28;20156;-59
2023/05/16 11:32:23;;;;;;;9.73;8.70;;;15.60;1.00;;;;;;5057123;28;20039;-59
2023/05/16 11:34:50;;;;;;;13.88;8.93;;;15.60;1.00;;;;;;5073582;28;20028;-58
2023/05/16 11:37:18;;;;;;;11.95;8.73;;;15.30;1.00;;;;;;5073983;28;20029;-59
2023/05/16 11:39:45;;;;;;;9.75;8.80;;;15.20;1.00;;;;;;5072246;28;20536;-59
2023/05/16 11:42:12;;;;;;;12.20;9.35;;;15.30;1.00;;;;;;5073869;28;20123;-58
2023/05/16 11:44:38;;;;;;;19.10;10.05;;;15.30;1.00;;;;;;5073363;28;20023;-59
2023/05/16 11:47:04;;;;;;;14.45;10.13;;;15.00;8.50;;;;;;5075133;28;20353;-59
2023/05/16 11:49:30;;;;;;;11.35;9.90;;;15.00;39.40;;;;;;5093836;28;20028;-59
2023/05/16 11:51:56;;;;;;;11.52;10.35;;;15.00;35.50;;;;;;5093642;28;20024;-59
2023/05/16 11:54:23;;;;;;;17.50;12.52;;;14.80;25.00;;;;;;5093836;28;20024;-58
2023/05/16 11:56:50;;;;;;;18.23;11.32;;;14.70;19.10;;;;;;5093943;28;20379;-59
2023/05/16 11:59:16;;;;;;;15.48;11.60;;;14.50;17.20;;;;;;5093518;28;20037;-59
2023/05/16 12:01:42;;;;;;;10.43;9.40;;;14.40;39.20;;;;;;5074104;28;20360;-59
2023/05/16 12:04:12;;;;;;;15.82;10.77;;;14.60;13.20;;;;;;5091556;28;20030;-59
2023/05/16 12:06:39;;;;;;;11.20;10.10;;;14.40;45.70;;;;;;5093519;28;20047;-59
2023/05/16 12:09:09;;;;;;;11.30;10.10;;;14.50;44.20;;;;;;5093576;28;20040;-60
2023/05/16 12:11:39;;;;;;;17.63;15.55;;;14.50;48.20;;;;;;5093578;28;20140;-59
2023/05/16 12:14:09;;;;;;;19.63;14.50;;;14.60;58.10;;;;;;5093314;28;20024;-59
2023/05/16 12:16:36;;;;;;;18.48;16.38;;;14.70;44.60;;;;;;5093420;28;20031;-59
2023/05/16 12:19:04;;;;;;;16.27;12.45;;;14.60;54.50;;;;;;5075302;28;20036;-60
2023/05/16 12:21:33;;;;;;;12.75;11.30;;;14.70;66.10;;;;;;5072247;28;20062;-59
2023/05/16 12:23:59;;;;;;;15.07;11.73;;;14.70;39.80;;;;;;5087664;28;20034;-59
2023/05/16 12:26:32;;;;;;;15.45;11.43;;;14.70;46.80;;;;;;5092198;28;20020;-59
2023/05/16 12:29:03;;;;;;;13.05;11.60;;;14.60;50.90;;;;;;5092100;28;20031;-59
2023/05/16 12:31:30;;;;;;;12.73;11.35;;;14.50;58.90;;;;;;5090873;28;20024;-59
2023/05/16 12:33:56;;;;;;;11.60;10.43;;;14.30;51.00;;;;;;5091607;28;20115;-59
2023/05/16 12:36:23;;;;;;;12.45;10.45;;;14.30;58.10;;;;;;5071131;28;20085;-59
2023/05/16 12:38:50;;;;;;;12.68;11.38;;;14.30;42.00;;;;;;5084930;28;20085;-59
2023/05/16 12:41:21;;;;;;;14.38;10.95;;;14.30;49.00;;;;;;5091890;28;20361;-60
2023/05/16 12:43:47;;;;;;;20.10;12.85;;;14.20;35.00;;;;;;5091561;28;20223;-59
2023/05/16 12:46:13;;;;;;;24.40;18.00;;;14.20;54.40;;;;;;5090378;28;20382;-59
2023/05/16 12:48:43;;;;;;;26.90;19.65;;;14.40;65.80;;;;;;5091436;28;20028;-59
2023/05/16 12:51:18;;;;;;;13.43;12.02;;;14.50;47.30;;;;;;5091680;28;20353;-59